This is the latest recevied weather packets stored in our database for station/object W0CHP-13. If no packets are shown the sender has not sent any weather packets the latest 1 day(s).
| Time | Temp. | Humidity | Pressure | Rain* | Wind** | Luminosity | Snow |
|---|---|---|---|---|---|---|---|
| 1778005396 | 13.89° C | 27% | 1008.9 hPa | 0 mm | 0.89 m/s, 322° | 887 W/m² | - |
| 1778004799 | 14.44° C | 24% | 1008.5 hPa | 0 mm | 1.34 m/s, 278° | 268 W/m² | - |
| 1778004197 | 13.33° C | 27% | 1008.7 hPa | 0 mm | 1.34 m/s, 299° | 532 W/m² | - |
| 1778003595 | 13.89° C | 24% | 1008.7 hPa | 0 mm | 1.34 m/s, 246° | 478 W/m² | - |
| 1778002997 | 14.44° C | 24% | 1008.9 hPa | 0 mm | 1.34 m/s, 304° | 721 W/m² | - |
| 1778002395 | 14.44° C | 24% | 1008.7 hPa | 0 mm | 2.24 m/s, 259° | 386 W/m² | - |
| 1778001797 | 15° C | 25% | 1008.7 hPa | 0 mm | 0 m/s | 529 W/m² | - |
| 1778001196 | 14.44° C | 25% | 1008.7 hPa | 0 mm | 2.24 m/s, 354° | 895 W/m² | - |
| 1778000598 | 16.11° C | 23% | 1008.7 hPa | 0 mm | 1.34 m/s, 330° | 954 W/m² | - |
| 1777999996 | 15° C | 25% | 1008.9 hPa | 0 mm | 1.34 m/s, 61° | 779 W/m² | - |
| 1777999398 | 15.56° C | 23% | 1008.5 hPa | 0 mm | 0.45 m/s, 297° | 735 W/m² | - |
| 1777998796 | 15° C | 25% | 1008.9 hPa | 0 mm | 0.45 m/s, 344° | 745 W/m² | - |
| 1777998198 | 16.11° C | 22% | 1008.9 hPa | 0 mm | 0.89 m/s, 304° | 525 W/m² | - |
| 1777997596 | 15.56° C | 24% | 1008.9 hPa | 0 mm | 0.45 m/s, 302° | 619 W/m² | - |
| 1777996995 | 15° C | 23% | 1008.9 hPa | 0 mm | 2.24 m/s, 321° | 661 W/m² | - |
| 1777996397 | 15.56° C | 21% | 1008.5 hPa | 0 mm | 0.89 m/s, 51° | 627 W/m² | - |
| 1777995795 | 15° C | 24% | 1008.9 hPa | 0 mm | 0.89 m/s, 351° | 580 W/m² | - |
| 1777995198 | 14.44° C | 23% | 1008.9 hPa | 0 mm | 0.45 m/s, 339° | 607 W/m² | - |
| 1777994596 | 15.56° C | 22% | 1008.9 hPa | 0 mm | 1.34 m/s, 294° | 569 W/m² | - |
| 1777993998 | 14.44° C | 23% | 1008.9 hPa | 0 mm | 2.24 m/s, 295° | 570 W/m² | - |
| 1777993396 | 15.56° C | 25% | 1008.7 hPa | 0 mm | 0.45 m/s, 336° | 536 W/m² | - |
| 1777992798 | 15° C | 25% | 1008.5 hPa | 0 mm | 0.89 m/s, 348° | 429 W/m² | - |
| 1777992196 | 13.89° C | 24% | 1008.5 hPa | 0 mm | 0.89 m/s, 266° | 483 W/m² | - |
| 1777991598 | 13.89° C | 25% | 1008.9 hPa | 0 mm | 2.24 m/s, 356° | 454 W/m² | - |
| 1777990997 | 14.44° C | 23% | 1008.9 hPa | 0 mm | 0.45 m/s, 328° | 423 W/m² | - |
* Rain latest hour (hover to see other rain measurements)
** Current wind speed in m/s (hover to see current wind gust speed)